createdAt,value
2018-06-05T00:00:40.633Z,22.00
2018-06-05T00:03:08.703Z,21.47
2018-06-05T00:05:36.922Z,21.43
2018-06-05T00:08:05.045Z,21.63
2018-06-05T00:10:33.149Z,22.20
2018-06-05T00:13:01.270Z,25.17
2018-06-05T00:15:29.368Z,24.73
2018-06-05T00:17:57.725Z,24.67
2018-06-05T00:20:25.817Z,23.70
2018-06-05T00:22:53.895Z,23.50
2018-06-05T00:25:21.942Z,23.37
2018-06-05T00:27:50.103Z,22.90
2018-06-05T00:30:18.188Z,22.40
2018-06-05T00:32:46.308Z,20.93
2018-06-05T00:35:14.415Z,20.73
2018-06-05T00:37:42.378Z,21.57
2018-06-05T00:40:10.246Z,22.83
2018-06-05T00:42:38.515Z,23.03
2018-06-05T00:45:06.618Z,23.33
2018-06-05T00:47:34.798Z,22.07
2018-06-05T00:50:02.938Z,23.17
2018-06-05T00:52:31.012Z,24.13
2018-06-05T00:54:59.409Z,24.90
2018-06-05T00:57:27.482Z,22.70
2018-06-05T00:59:55.428Z,22.87
2018-06-05T01:02:23.606Z,23.83
2018-06-05T01:04:51.805Z,23.80
2018-06-05T01:07:19.934Z,22.87
2018-06-05T01:09:48.057Z,23.80
2018-06-05T01:12:16.218Z,24.43
2018-06-05T01:14:44.395Z,23.43
2018-06-05T01:17:12.578Z,23.77
2018-06-05T01:19:40.721Z,24.43
2018-06-05T01:22:08.825Z,23.20
2018-06-05T01:24:36.943Z,23.47
2018-06-05T01:27:05.076Z,22.67
2018-06-05T01:29:33.180Z,24.07
2018-06-05T01:32:01.518Z,24.33
2018-06-05T01:34:29.609Z,22.53
2018-06-05T01:36:57.878Z,23.53
2018-06-05T01:39:25.994Z,23.30
2018-06-05T01:41:54.150Z,23.43
2018-06-05T01:44:22.317Z,22.13
2018-06-05T01:46:50.414Z,24.53
2018-06-05T01:49:18.566Z,23.63
2018-06-05T01:51:46.701Z,24.73
2018-06-05T01:54:14.825Z,24.10
2018-06-05T01:56:42.903Z,24.70
2018-06-05T01:59:11.041Z,25.17
2018-06-05T02:01:39.150Z,27.10
2018-06-05T02:04:07.279Z,27.33
2018-06-05T02:06:35.373Z,28.20
2018-06-05T02:09:04.909Z,28.90
2018-06-05T02:11:33.026Z,32.33
2018-06-05T02:14:01.133Z,31.10
2018-06-05T02:16:29.217Z,31.00
2018-06-05T02:18:57.349Z,32.00
2018-06-05T02:21:25.469Z,28.00
2018-06-05T02:23:53.544Z,27.97
2018-06-05T02:26:21.671Z,28.60
2018-06-05T02:28:49.766Z,30.87
2018-06-05T02:31:17.839Z,26.90
2018-06-05T02:33:45.973Z,25.67
2018-06-05T02:36:14.108Z,25.07
2018-06-05T02:38:42.198Z,24.20
2018-06-05T02:41:10.341Z,24.13
2018-06-05T02:43:38.450Z,23.93
2018-06-05T02:46:06.653Z,22.63
2018-06-05T02:48:34.750Z,22.83
2018-06-05T02:51:02.853Z,20.90
2018-06-05T02:53:30.945Z,21.00
2018-06-05T02:55:59.104Z,20.90
2018-06-05T02:58:27.209Z,20.33
2018-06-05T03:00:55.354Z,20.60
2018-06-05T03:03:23.435Z,21.47
2018-06-05T03:05:51.555Z,20.50
2018-06-05T03:08:19.535Z,20.57
2018-06-05T03:10:47.654Z,19.80
2018-06-05T03:13:15.764Z,20.67
2018-06-05T03:15:43.893Z,20.90
2018-06-05T03:18:12.036Z,20.03
2018-06-05T03:20:40.152Z,19.53
2018-06-05T03:23:08.249Z,20.77
2018-06-05T03:25:36.351Z,20.70
2018-06-05T03:28:04.467Z,19.60
2018-06-05T03:30:32.779Z,20.53
2018-06-05T03:35:31.947Z,21.17
2018-06-05T03:38:00.075Z,20.53
2018-06-05T03:40:28.158Z,20.73
2018-06-05T03:42:56.263Z,21.17
2018-06-05T03:45:24.377Z,19.60
2018-06-05T03:47:52.483Z,21.00
2018-06-05T03:50:20.580Z,19.17
2018-06-05T03:52:48.656Z,18.27
2018-06-05T03:55:16.847Z,19.27
2018-06-05T03:57:44.962Z,20.73
2018-06-05T04:00:13.193Z,19.13
2018-06-05T04:02:41.303Z,19.57
2018-06-05T04:05:09.477Z,20.17
2018-06-05T04:07:37.547Z,19.63
2018-06-05T04:10:05.977Z,19.90
2018-06-05T04:12:34.127Z,18.87
2018-06-05T04:15:02.239Z,20.20
2018-06-05T04:17:30.351Z,19.90
2018-06-05T04:19:58.457Z,18.33
2018-06-05T04:22:26.386Z,18.67
2018-06-05T04:24:54.528Z,19.60
2018-06-05T04:27:22.702Z,19.27
2018-06-05T04:29:50.836Z,18.90
2018-06-05T04:32:18.950Z,18.17
2018-06-05T04:34:47.079Z,19.87
2018-06-05T04:37:15.187Z,20.53
2018-06-05T04:39:43.327Z,19.93
2018-06-05T04:42:11.419Z,20.50
2018-06-05T04:44:39.548Z,19.80
2018-06-05T04:47:07.638Z,19.10
2018-06-05T04:49:35.736Z,19.57
2018-06-05T04:52:03.867Z,19.70
2018-06-05T04:54:32.129Z,20.37
2018-06-05T04:57:00.221Z,18.77
2018-06-05T04:59:28.304Z,18.67
2018-06-05T05:01:56.377Z,17.53
2018-06-05T05:04:24.483Z,18.47
2018-06-05T05:06:52.339Z,18.20
2018-06-05T05:09:20.944Z,18.23
2018-06-05T05:11:49.068Z,19.70
2018-06-05T05:14:17.173Z,19.43
2018-06-05T05:16:45.275Z,18.87
2018-06-05T05:19:13.354Z,19.70
2018-06-05T05:21:41.449Z,18.63
2018-06-05T05:24:09.960Z,19.93
2018-06-05T05:26:38.054Z,19.73
2018-06-05T05:29:06.143Z,19.17
2018-06-05T05:31:34.215Z,19.93
2018-06-05T05:34:02.324Z,19.50
2018-06-05T05:36:30.475Z,20.00
2018-06-05T05:38:58.408Z,19.87
2018-06-05T05:41:26.477Z,20.57
2018-06-05T05:43:54.584Z,18.67
2018-06-05T05:46:22.655Z,19.20
2018-06-05T05:48:51.621Z,21.67
2018-06-05T05:51:19.682Z,19.53
2018-06-05T05:53:47.787Z,22.77
2018-06-05T05:56:15.900Z,21.87
2018-06-05T05:58:43.990Z,23.60
2018-06-05T06:01:12.078Z,23.47
2018-06-05T06:03:40.224Z,22.40
2018-06-05T06:06:08.321Z,20.23
2018-06-05T06:08:36.420Z,19.87
2018-06-05T06:11:04.524Z,19.27
2018-06-05T06:13:32.618Z,18.47
2018-06-05T06:16:00.720Z,18.73
2018-06-05T06:18:28.773Z,19.33
2018-06-05T06:20:56.892Z,19.10
2018-06-05T06:23:24.990Z,18.63
2018-06-05T06:25:53.148Z,17.93
2018-06-05T06:28:21.162Z,17.37
2018-06-05T06:30:49.396Z,17.93
2018-06-05T06:33:17.291Z,19.20
2018-06-05T06:35:45.379Z,18.73
2018-06-05T06:38:13.437Z,20.03
2018-06-05T06:40:41.536Z,18.97
2018-06-05T06:43:09.599Z,18.97
2018-06-05T06:45:37.700Z,17.43
2018-06-05T06:48:05.856Z,19.53
2018-06-05T06:50:33.946Z,18.23
2018-06-05T06:53:02.046Z,19.07
2018-06-05T06:55:30.056Z,19.17
2018-06-05T06:57:58.130Z,18.93
2018-06-05T07:00:26.249Z,19.47
2018-06-05T07:02:54.341Z,19.73
2018-06-05T07:05:22.508Z,18.73
2018-06-05T07:07:50.606Z,17.57
2018-06-05T07:10:18.782Z,20.30
2018-06-05T07:12:46.962Z,19.07
2018-06-05T07:15:15.083Z,19.67
2018-06-05T07:17:43.227Z,18.60
2018-06-05T07:20:11.380Z,18.70
2018-06-05T07:22:39.513Z,17.90
2018-06-05T07:25:07.625Z,18.73
2018-06-05T07:27:35.777Z,19.10
2018-06-05T07:30:03.879Z,18.90
2018-06-05T07:32:31.982Z,19.07
2018-06-05T07:35:00.114Z,19.13
2018-06-05T07:37:28.248Z,18.90
2018-06-05T07:39:56.361Z,18.13
2018-06-05T07:42:24.542Z,17.40
2018-06-05T07:44:52.603Z,16.90
2018-06-05T07:47:20.739Z,17.13
2018-06-05T07:49:48.850Z,16.77
2018-06-05T07:52:16.975Z,17.03
2018-06-05T07:54:45.090Z,17.40
2018-06-05T07:57:13.187Z,15.93
2018-06-05T07:59:41.260Z,16.00
2018-06-05T08:02:09.352Z,17.23
2018-06-05T08:04:37.443Z,17.20
2018-06-05T08:07:05.493Z,16.13
2018-06-05T08:09:33.590Z,16.17
2018-06-05T08:12:01.676Z,17.63
2018-06-05T08:14:29.760Z,17.80
2018-06-05T08:16:57.879Z,16.47
2018-06-05T08:19:25.964Z,17.93
2018-06-05T08:21:54.066Z,16.90
2018-06-05T08:24:22.215Z,16.63
2018-06-05T08:26:51.094Z,16.77
2018-06-05T08:29:19.709Z,17.30
2018-06-05T08:31:48.062Z,17.77
2018-06-05T08:34:16.210Z,16.43
2018-06-05T08:36:44.300Z,17.47
2018-06-05T08:39:12.361Z,17.37
2018-06-05T08:41:40.234Z,16.30
2018-06-05T08:44:08.318Z,18.17
2018-06-05T08:46:36.444Z,16.77
2018-06-05T08:49:04.514Z,16.90
2018-06-05T08:51:32.627Z,16.47
2018-06-05T08:54:00.694Z,17.33
2018-06-05T08:56:28.810Z,16.20
2018-06-05T08:58:56.893Z,16.67
2018-06-05T09:01:24.995Z,16.83
2018-06-05T09:03:53.064Z,17.17
2018-06-05T09:06:21.176Z,17.97
2018-06-05T09:08:49.282Z,17.57
2018-06-05T09:11:17.557Z,17.60
2018-06-05T09:13:45.750Z,18.30
2018-06-05T09:16:13.831Z,16.90
2018-06-05T09:18:41.935Z,16.87
2018-06-05T09:21:10.007Z,17.10
2018-06-05T09:23:37.924Z,17.50
2018-06-05T09:26:06.018Z,17.93
2018-06-05T09:28:34.160Z,16.37
2018-06-05T09:31:02.338Z,17.00
2018-06-05T09:33:30.453Z,16.60
2018-06-05T09:35:58.532Z,17.07
2018-06-05T09:38:26.654Z,15.97
2018-06-05T09:40:54.723Z,16.30
2018-06-05T09:43:22.824Z,15.33
2018-06-05T09:45:50.877Z,17.67
2018-06-05T09:48:19.007Z,17.97
2018-06-05T09:50:47.095Z,17.47
2018-06-05T09:53:15.215Z,16.93
2018-06-05T09:55:43.690Z,16.70
2018-06-05T09:58:11.920Z,16.93
2018-06-05T10:00:45.516Z,17.27
2018-06-05T10:03:13.439Z,17.07
2018-06-05T10:05:41.528Z,18.47
2018-06-05T10:08:09.610Z,16.70
2018-06-05T10:10:37.940Z,15.93
2018-06-05T10:13:06.612Z,17.33
2018-06-05T10:15:34.717Z,18.37
2018-06-05T10:18:03.623Z,17.70
2018-06-05T10:20:31.893Z,17.80
2018-06-05T10:23:00.687Z,18.20
2018-06-05T10:25:28.799Z,18.10
2018-06-05T10:27:58.184Z,16.47
2018-06-05T10:30:26.299Z,16.60
2018-06-05T10:32:54.371Z,16.27
2018-06-05T10:35:22.271Z,18.77
2018-06-05T10:37:50.463Z,17.53
2018-06-05T10:40:18.535Z,17.13
2018-06-05T10:42:46.820Z,17.50
2018-06-05T10:45:15.101Z,17.47
2018-06-05T10:47:43.253Z,18.17
2018-06-05T10:50:11.346Z,17.40
2018-06-05T10:52:39.450Z,16.30
2018-06-05T10:55:07.570Z,17.57
2018-06-05T10:57:35.694Z,16.87
2018-06-05T11:00:03.853Z,17.13
2018-06-05T11:02:31.971Z,17.57
2018-06-05T11:05:00.097Z,16.73
2018-06-05T11:07:28.198Z,17.13
2018-06-05T11:09:56.300Z,17.97
2018-06-05T11:12:24.407Z,15.90
2018-06-05T11:14:52.503Z,16.70
2018-06-05T11:17:20.596Z,16.37
2018-06-05T11:19:48.718Z,15.73
2018-06-05T11:22:16.819Z,14.67
2018-06-05T11:24:44.948Z,14.77
2018-06-05T11:27:13.035Z,16.37
2018-06-05T11:29:41.114Z,16.50
2018-06-05T11:32:09.264Z,15.63
2018-06-05T11:34:37.370Z,16.10
2018-06-05T11:37:05.454Z,15.83
2018-06-05T11:39:33.598Z,14.83
2018-06-05T11:42:01.690Z,15.10
2018-06-05T11:44:29.817Z,13.87
2018-06-05T11:46:58.005Z,13.80
2018-06-05T11:49:26.073Z,13.47
2018-06-05T11:51:54.003Z,12.50
2018-06-05T11:54:22.111Z,13.53
2018-06-05T11:56:50.220Z,13.47
2018-06-05T11:59:18.359Z,12.13
2018-06-05T12:01:46.476Z,11.67
2018-06-05T12:04:14.619Z,11.47
2018-06-05T12:06:42.748Z,12.10
2018-06-05T12:09:10.863Z,11.97
2018-06-05T12:11:38.976Z,11.00
2018-06-05T12:14:07.068Z,12.27
2018-06-05T12:16:35.191Z,12.10
2018-06-05T12:19:03.288Z,11.40
2018-06-05T12:21:31.402Z,13.03
2018-06-05T12:23:59.518Z,12.13
2018-06-05T12:26:27.584Z,11.70
2018-06-05T12:28:55.676Z,11.20
2018-06-05T12:31:24.092Z,12.90
2018-06-05T12:33:52.198Z,11.77
2018-06-05T12:36:20.307Z,10.63
2018-06-05T12:41:18.555Z,10.90
2018-06-05T12:43:46.676Z,11.60
2018-06-05T12:46:14.794Z,10.70
2018-06-05T12:48:42.873Z,11.47
2018-06-05T12:51:10.961Z,11.53
2018-06-05T12:53:39.067Z,11.57
2018-06-05T12:56:07.212Z,9.67
2018-06-05T12:58:35.372Z,11.20
2018-06-05T13:01:03.447Z,9.30
2018-06-05T13:03:32.792Z,8.87
2018-06-05T13:06:00.897Z,8.63
2018-06-05T13:08:29.078Z,7.87
2018-06-05T13:10:57.301Z,7.63
2018-06-05T13:13:25.430Z,7.53
2018-06-05T13:15:53.585Z,7.90
2018-06-05T13:18:21.675Z,7.67
2018-06-05T13:20:49.789Z,7.30
2018-06-05T13:23:17.875Z,7.87
2018-06-05T13:25:45.994Z,7.47
2018-06-05T13:28:14.114Z,7.73
2018-06-05T13:30:42.279Z,8.53
2018-06-05T13:33:10.358Z,8.20
2018-06-05T13:35:38.500Z,7.90
2018-06-05T13:38:06.686Z,9.03
2018-06-05T13:40:34.778Z,8.23
2018-06-05T13:43:03.531Z,8.33
2018-06-05T13:45:31.586Z,8.47
2018-06-05T13:47:59.668Z,7.90
2018-06-05T13:50:28.003Z,8.20
2018-06-05T13:52:56.085Z,7.70
2018-06-05T13:55:24.167Z,9.00
2018-06-05T13:57:52.258Z,7.70
2018-06-05T14:00:20.363Z,7.97
2018-06-05T14:02:48.460Z,7.63
2018-06-05T14:05:16.553Z,8.67
2018-06-05T14:07:44.723Z,9.13
2018-06-05T14:10:12.797Z,8.80
2018-06-05T14:12:40.861Z,8.30
2018-06-05T14:15:08.918Z,8.03
2018-06-05T14:17:36.990Z,8.73
2018-06-05T14:20:05.047Z,8.03
2018-06-05T14:22:33.166Z,8.87
2018-06-05T14:25:01.278Z,9.40
2018-06-05T14:27:29.353Z,8.70
2018-06-05T14:29:57.425Z,8.37
2018-06-05T14:32:25.494Z,8.03
2018-06-05T14:34:53.607Z,8.77
2018-06-05T14:37:21.747Z,8.77
2018-06-05T14:39:49.868Z,9.20
2018-06-05T14:42:17.987Z,9.23
2018-06-05T14:44:46.078Z,9.47
2018-06-05T14:47:14.149Z,7.87
2018-06-05T14:49:42.282Z,8.80
2018-06-05T14:52:10.358Z,9.43
2018-06-05T14:54:38.463Z,9.13
2018-06-05T14:57:06.725Z,8.67
2018-06-05T14:59:34.876Z,9.67
2018-06-05T15:02:02.956Z,8.47
2018-06-05T15:04:31.050Z,8.90
2018-06-05T15:06:59.152Z,11.57
2018-06-05T15:09:27.262Z,8.70
2018-06-05T15:11:55.382Z,8.63
2018-06-05T15:14:23.454Z,8.83
2018-06-05T15:16:51.513Z,8.27
2018-06-05T15:19:19.601Z,8.27
2018-06-05T15:21:47.671Z,8.23
2018-06-05T15:24:15.763Z,8.53
2018-06-05T15:26:43.859Z,8.63
2018-06-05T15:29:11.960Z,8.43
2018-06-05T15:31:40.031Z,8.23
2018-06-05T15:34:08.127Z,8.00
2018-06-05T15:36:36.329Z,8.27
2018-06-05T15:39:07.420Z,8.77
2018-06-05T15:41:35.534Z,8.07
2018-06-05T15:44:03.636Z,7.63
2018-06-05T15:46:31.558Z,8.00
2018-06-05T15:48:59.664Z,8.50
2018-06-05T15:51:27.863Z,8.73
2018-06-05T15:53:55.967Z,8.50
2018-06-05T15:56:24.073Z,7.83
2018-06-05T15:58:52.150Z,8.10
2018-06-05T16:01:20.274Z,8.10
2018-06-05T16:03:48.389Z,7.50
2018-06-05T16:06:16.519Z,8.20
2018-06-05T16:08:44.668Z,8.00
2018-06-05T16:11:12.762Z,7.83
2018-06-05T16:13:40.904Z,8.13
2018-06-05T16:16:09.032Z,8.50
2018-06-05T16:18:37.120Z,7.90
2018-06-05T16:21:05.201Z,8.77
2018-06-05T16:23:33.293Z,8.33
2018-06-05T16:26:01.394Z,8.80
2018-06-05T16:28:29.545Z,8.17
2018-06-05T16:30:57.640Z,8.87
2018-06-05T16:33:25.779Z,8.97
2018-06-05T16:35:53.851Z,9.03
2018-06-05T16:38:21.939Z,8.83
2018-06-05T16:40:50.233Z,8.87
2018-06-05T16:43:18.117Z,8.87
2018-06-05T16:45:46.172Z,9.70
2018-06-05T16:48:14.262Z,9.57
2018-06-05T16:50:42.319Z,9.30
2018-06-05T16:53:10.432Z,8.63
2018-06-05T16:55:38.523Z,8.40
2018-06-05T16:58:06.607Z,8.50
2018-06-05T17:00:34.686Z,8.07
2018-06-05T17:03:02.775Z,8.63
2018-06-05T17:05:30.920Z,8.20
2018-06-05T17:07:59.002Z,8.50
2018-06-05T17:10:27.127Z,8.83
2018-06-05T17:12:55.272Z,8.90
2018-06-05T17:15:23.377Z,9.43
2018-06-05T17:17:51.514Z,10.00
2018-06-05T17:20:19.623Z,9.90
2018-06-05T17:22:47.695Z,9.40
2018-06-05T17:25:15.790Z,9.83
2018-06-05T17:27:43.885Z,9.80
2018-06-05T17:30:11.951Z,9.10
2018-06-05T17:32:40.053Z,8.37
2018-06-05T17:35:08.154Z,7.60
2018-06-05T17:37:36.208Z,8.23
2018-06-05T17:40:04.340Z,6.70
2018-06-05T17:42:32.443Z,6.77
2018-06-05T17:45:00.543Z,6.33
2018-06-05T17:47:28.678Z,5.20
2018-06-05T17:49:56.878Z,5.40
2018-06-05T17:52:25.023Z,4.40
2018-06-05T17:54:53.156Z,4.70
2018-06-05T17:57:21.388Z,3.87
2018-06-05T17:59:49.462Z,3.23
2018-06-05T18:02:17.514Z,3.40
2018-06-05T18:04:45.604Z,3.07
2018-06-05T18:07:13.704Z,3.00
2018-06-05T18:09:41.798Z,2.93
2018-06-05T18:12:09.701Z,2.53
2018-06-05T18:14:37.796Z,2.50
2018-06-05T18:17:05.931Z,2.67
2018-06-05T18:19:34.000Z,2.83
2018-06-05T18:22:02.103Z,2.30
2018-06-05T18:24:30.167Z,2.80
2018-06-05T18:27:00.995Z,2.30
2018-06-05T18:29:29.186Z,2.43
2018-06-05T18:31:57.308Z,2.37
2018-06-05T18:34:25.433Z,2.10
2018-06-05T18:36:53.629Z,2.03
2018-06-05T18:39:21.674Z,2.20
2018-06-05T18:41:49.773Z,1.83
2018-06-05T18:44:17.887Z,1.80
2018-06-05T18:46:45.999Z,1.90
2018-06-05T18:49:14.114Z,2.00
2018-06-05T18:51:42.171Z,1.83
2018-06-05T18:54:10.342Z,1.50
2018-06-05T18:56:38.423Z,1.97
2018-06-05T18:59:06.518Z,1.80
2018-06-05T19:01:34.594Z,1.50
2018-06-05T19:04:02.767Z,1.73
2018-06-05T19:06:30.865Z,1.57
2018-06-05T19:08:58.956Z,1.90
2018-06-05T19:11:27.070Z,1.70
2018-06-05T19:13:55.304Z,11.00
2018-06-05T19:16:23.493Z,5.90
2018-06-05T19:18:51.754Z,3.20
2018-06-05T19:21:19.862Z,2.00
2018-06-05T19:23:47.896Z,1.60
2018-06-05T19:26:16.159Z,1.63
2018-06-05T19:28:44.240Z,1.50
2018-06-05T19:31:12.334Z,1.60
2018-06-05T19:33:40.393Z,1.50
2018-06-05T19:36:08.531Z,1.80
2018-06-05T19:38:36.623Z,1.70
2018-06-05T19:41:04.820Z,1.50
2018-06-05T19:43:32.929Z,1.40
2018-06-05T19:46:01.006Z,1.80
2018-06-05T19:48:29.118Z,1.60
2018-06-05T19:50:57.266Z,1.60
2018-06-05T19:53:25.424Z,1.87
2018-06-05T19:55:53.512Z,1.87
2018-06-05T19:58:21.671Z,1.73
2018-06-05T20:00:49.779Z,1.97
2018-06-05T20:03:18.043Z,1.70
2018-06-05T20:05:46.122Z,1.60
2018-06-05T20:08:14.188Z,1.63
2018-06-05T20:10:42.282Z,1.67
2018-06-05T20:13:10.334Z,1.60
2018-06-05T20:15:38.442Z,1.40
2018-06-05T20:18:06.498Z,1.63
2018-06-05T20:20:34.546Z,1.53
2018-06-05T20:23:02.635Z,1.67
2018-06-05T20:25:30.586Z,2.07
2018-06-05T20:27:58.662Z,3.47
2018-06-05T20:30:26.774Z,1.70
2018-06-05T20:32:54.874Z,1.60
2018-06-05T20:35:22.960Z,1.83
2018-06-05T20:37:51.040Z,1.40
2018-06-05T20:40:19.103Z,1.50
2018-06-05T20:42:47.232Z,1.67
2018-06-05T20:45:15.264Z,1.50
2018-06-05T20:47:43.338Z,1.50
2018-06-05T20:50:11.396Z,1.60
2018-06-05T20:52:39.471Z,1.60
2018-06-05T20:55:07.561Z,1.53
2018-06-05T20:57:35.633Z,2.07
2018-06-05T21:00:04.859Z,1.53
2018-06-05T21:02:32.898Z,1.60
2018-06-05T21:05:00.973Z,3.83
2018-06-05T21:07:29.301Z,1.63
2018-06-05T21:09:57.515Z,1.67
2018-06-05T21:12:25.934Z,1.70
2018-06-05T21:14:54.016Z,1.57
2018-06-05T21:17:22.119Z,1.60
2018-06-05T21:19:50.216Z,1.70
2018-06-05T21:22:18.451Z,1.80
2018-06-05T21:24:46.556Z,1.70
2018-06-05T21:27:14.631Z,1.40
2018-06-05T21:29:42.760Z,1.60
2018-06-05T21:32:10.868Z,1.87
2018-06-05T21:34:38.946Z,1.60
2018-06-05T21:37:07.049Z,1.80
2018-06-05T21:39:35.262Z,1.50
2018-06-05T21:42:03.334Z,1.60
2018-06-05T21:44:31.224Z,1.67
2018-06-05T21:46:59.295Z,1.77
2018-06-05T21:49:27.409Z,1.70
2018-06-05T21:51:55.515Z,1.93
2018-06-05T21:54:23.587Z,2.00
2018-06-05T21:56:51.735Z,2.40
2018-06-05T21:59:19.831Z,2.50
2018-06-05T22:01:47.739Z,2.47
2018-06-05T22:04:15.881Z,2.67
2018-06-05T22:06:43.984Z,2.40
2018-06-05T22:09:12.065Z,2.23
2018-06-05T22:11:40.173Z,2.03
2018-06-05T22:14:08.267Z,1.90
2018-06-05T22:16:36.360Z,1.90
2018-06-05T22:19:04.444Z,1.80
2018-06-05T22:21:32.546Z,1.73
2018-06-05T22:24:00.587Z,2.07
2018-06-05T22:26:28.666Z,1.80
2018-06-05T22:28:56.720Z,2.40
2018-06-05T22:31:24.595Z,2.60
2018-06-05T22:33:52.661Z,2.57
2018-06-05T22:36:20.734Z,2.97
2018-06-05T22:38:48.670Z,2.97
2018-06-05T22:41:16.775Z,3.40
2018-06-05T22:43:44.864Z,3.30
2018-06-05T22:46:12.927Z,3.47
2018-06-05T22:48:40.994Z,3.07
2018-06-05T22:51:09.077Z,3.20
2018-06-05T22:53:37.195Z,3.00
2018-06-05T22:56:05.379Z,2.90
2018-06-05T22:58:33.476Z,2.93
2018-06-05T23:01:01.544Z,2.90
2018-06-05T23:03:29.621Z,3.00
2018-06-05T23:05:57.490Z,3.57
2018-06-05T23:08:25.714Z,3.57
2018-06-05T23:10:53.827Z,4.17
2018-06-05T23:13:21.955Z,3.70
2018-06-05T23:15:50.042Z,4.00
2018-06-05T23:18:18.135Z,3.97
2018-06-05T23:20:46.238Z,3.50
2018-06-05T23:23:14.327Z,3.20
2018-06-05T23:25:42.411Z,3.30
2018-06-05T23:28:10.500Z,3.30
2018-06-05T23:30:38.582Z,3.83
2018-06-05T23:33:06.646Z,3.63
2018-06-05T23:35:34.827Z,4.30
2018-06-05T23:38:02.944Z,4.10
2018-06-05T23:40:31.026Z,4.67
2018-06-05T23:42:59.111Z,4.50
2018-06-05T23:45:27.211Z,4.80
2018-06-05T23:47:55.331Z,5.00
2018-06-05T23:50:23.433Z,3.73
2018-06-05T23:52:51.334Z,4.67
2018-06-05T23:55:19.472Z,3.67
2018-06-05T23:57:47.579Z,3.90
